ADDS METAR Data INFO
IDs: Format: Raw Decoded Include TAF

Data at: 1247 UTC 19 Oct 2017

KGIC 191235Z AUTO 11007KT 070V130 10SM CLR 07/00 A2971 RMK AO1
KGIC 191215Z AUTO 00000KT 10SM CLR 14/M03 A2972 RMK AO1
KGIC 191155Z AUTO 13005KT 10SM CLR 13/M02 A2972 RMK AO1
KGIC 191135Z AUTO 17007KT 10SM CLR 15/M02 A2972 RMK AO1
KGIC 191115Z AUTO 17004KT 10SM CLR 16/M03 A2972 RMK AO1
KGIC 191055Z AUTO 19007KT 10SM CLR 15/M03 A2972 RMK AO1
KGIC 191035Z AUTO 19006KT 10SM CLR 16/M03 A2973 RMK AO1
KGIC 191015Z AUTO 18005KT 10SM CLR 16/M03 A2973 RMK AO1
KGIC 190955Z AUTO 11003KT 10SM CLR 15/M02 A2975 RMK AO1
KGIC 190935Z AUTO 15005KT 10SM CLR 16/M02 A2975 RMK AO1
KGIC 190915Z AUTO 20007KT 10SM CLR 16/M02 A2975 RMK AO1
KGIC 190855Z AUTO 19009G14KT 10SM CLR 16/M02 A2976 RMK AO1
KGIC 190835Z AUTO 19008G16KT 10SM CLR 16/M02 A2976 RMK AO1
KGIC 190815Z AUTO 19006KT 10SM CLR 15/M02 A2976 RMK AO1
KGIC 190755Z AUTO 19003KT 10SM CLR 16/M02 A2977 RMK AO1
KGIC 190735Z AUTO 19006KT 10SM CLR 16/M01 A2977 RMK AO1
KGIC 190715Z AUTO 19007KT 10SM CLR 15/M01 A2977 RMK AO1
KGIC 190655Z AUTO 18005KT 10SM CLR 15/M01 A2977 RMK AO1
KGIC 190635Z AUTO 17007KT 10SM CLR 15/M01 A2977 RMK AO1
KGIC 190615Z AUTO 19007KT 10SM CLR 15/M01 A2978 RMK AO1
KGIC 190555Z AUTO 19009KT 10SM CLR 16/M01 A2979 RMK AO1
KGIC 190535Z AUTO 18008G14KT 10SM CLR 16/M01 A2979 RMK AO1
KGIC 190515Z AUTO 18010G18KT 10SM CLR 16/M01 A2980 RMK AO1
KGIC 190455Z AUTO 21004KT 10SM CLR 13/00 A2981 RMK AO1
KGIC 190435Z AUTO 08004KT 10SM CLR 10/01 A2981 RMK AO1
KGIC 190415Z AUTO 07005KT 10SM CLR 10/01 A2982 RMK AO1
KGIC 190355Z AUTO 06005KT 10SM CLR 10/02 A2982 RMK AO1
KGIC 190335Z AUTO 00000KT 10SM CLR 12/02 A2983 RMK AO1
KGIC 190315Z AUTO 06003KT 10SM CLR 14/00 A2984 RMK AO1
KGIC 190255Z AUTO 00000KT 10SM CLR 16/M01 A2986 RMK AO1
KGIC 190235Z AUTO 19005KT 10SM CLR 15/M01 A2986 RMK AO1
KGIC 190215Z AUTO 20008KT 10SM CLR 16/M01 A2986 RMK AO1
KGIC 190155Z AUTO 20010G15KT 10SM CLR 17/M01 A2987 RMK AO1
KGIC 190135Z AUTO 20006KT 10SM CLR 16/M01 A2987 RMK AO1
KGIC 190115Z AUTO 20008KT 10SM CLR 16/M01 A2988 RMK AO1
KGIC 190055Z AUTO 21005KT 10SM CLR 14/00 A2988 RMK AO1
KGIC 190035Z AUTO 09003KT 10SM CLR 11/06 A2989 RMK AO1
KGIC 190015Z AUTO 10005KT 10SM CLR 12/06 A2989 RMK AO1
KGIC 182355Z AUTO 09006KT 10SM CLR 13/06 A2989 RMK AO1
KGIC 182335Z AUTO 10007KT 10SM CLR 13/06 A2990 RMK AO1
KGIC 182315Z AUTO 11006KT 10SM CLR 14/06 A2991 RMK AO1
KGIC 182255Z AUTO 22005KT 10SM CLR 18/00 A2992 RMK AO1
KGIC 182235Z AUTO 21010G18KT 10SM SCT120 18/00 A2992 RMK AO1
KGIC 182215Z AUTO 22014G18KT 10SM SCT120 19/00 A2993 RMK AO1
KGIC 182155Z AUTO 21011G17KT 10SM CLR 19/01 A2993 RMK AO1
KGIC 182135Z AUTO 20008G15KT 10SM CLR 18/00 A2994 RMK AO1
KGIC 182115Z AUTO 21011G21KT 10SM CLR 17/01 A2995 RMK AO1
KGIC 182055Z AUTO 11006KT 7SM SCT110 14/05 A2996 RMK AO1
KGIC 182035Z AUTO 04007KT 10SM BKN110 13/05 A2996 RMK AO1
KGIC 182015Z AUTO 08008KT 10SM CLR 12/05 A2997 RMK AO1
KGIC 181955Z AUTO 09007KT 10SM CLR 11/05 A2998 RMK AO1
KGIC 181935Z AUTO 06007KT 7SM SCT080 SCT090 11/05 A3000 RMK AO1
KGIC 181915Z AUTO 08007KT 2 1/2SM SCT080 OVC090 12/04 A3001 RMK AO1
KGIC 181855Z AUTO 07003KT 10SM BKN090 12/03 A3002 RMK AO1
KGIC 181835Z AUTO 08004KT 10SM SCT090 13/03 A3002 RMK AO1
KGIC 181815Z AUTO 11003KT 10SM CLR 13/02 A3002 RMK AO1
KGIC 181755Z AUTO 10006KT 10SM SCT055 SCT065 10/03 A3003 RMK AO1
KGIC 181735Z AUTO 19003KT 10SM SCT050 SCT065 BKN090 09/03 A3004 RMK AO1
KGIC 181715Z AUTO 08006KT 10SM SCT050 BKN060 OVC090 08/03 A3004 RMK AO1
KGIC 181655Z AUTO 05009KT 10SM SCT050 BKN060 OVC075 08/03 A3004 RMK AO1
KGIC 181635Z AUTO 05008KT 7SM SCT070 BKN075 OVC085 08/02 A3004 RMK AO1
KGIC 181615Z AUTO 11009KT 10SM SCT065 SCT075 OVC085 08/02 A3005 RMK AO1
KGIC 181555Z AUTO 00000KT 10SM SCT065 BKN085 OVC100 08/02 A3005 RMK AO1
KGIC 181535Z AUTO 00000KT 10SM BKN065 BKN080 OVC100 07/02 A3004 RMK AO1
KGIC 181515Z AUTO 23004KT 10SM BKN065 07/03 A3004 RMK AO1
KGIC 181455Z AUTO 15005KT 10SM SCT065 SCT120 06/02 A3004 RMK AO1
KGIC 181435Z AUTO 00000KT 10SM CLR 06/02 A3004 RMK AO1
KGIC 181415Z AUTO 29005KT 10SM CLR 05/03 A3004 RMK AO1
KGIC 181355Z AUTO 00000KT 10SM CLR 05/03 A3004 RMK AO1
KGIC 181335Z AUTO 00000KT 10SM CLR 05/03 A3004 RMK AO1
KGIC 181315Z AUTO 00000KT 10SM CLR 06/03 A3005 RMK AO1
KGIC 181255Z AUTO 24004KT 10SM CLR 05/03 A3005 RMK AO1
KGIC 181235Z AUTO 22005KT 10SM CLR 05/03 A3005 RMK AO1
KGIC 181215Z AUTO 22008KT 10SM CLR 05/03 A3005 RMK AO1
KGIC 181155Z AUTO 14004KT 10SM CLR 06/03 A3005 RMK AO1
KGIC 181135Z AUTO 13008KT 10SM CLR 06/03 A3006 RMK AO1
KGIC 181115Z AUTO 09004KT 10SM CLR 06/03 A3007 RMK AO1
KGIC 181055Z AUTO 04006KT 10SM CLR 06/02 A3006 RMK AO1
KGIC 181035Z AUTO 00000KT 10SM CLR 06/03 A3006 RMK AO1
KGIC 181015Z AUTO 13007KT 10SM CLR 06/02 A3007 RMK AO1
KGIC 180955Z AUTO 09003KT 10SM CLR 07/01 A3008 RMK AO1
KGIC 180935Z AUTO 13003KT 10SM CLR 07/02 A3008 RMK AO1
KGIC 180915Z AUTO 00000KT 10SM SCT039 07/03 A3008 RMK AO1
KGIC 180855Z AUTO 11007KT 10SM SCT039 06/02 A3008 RMK AO1
KGIC 180835Z AUTO 11003KT 10SM CLR 06/01 A3008 RMK AO1
KGIC 180815Z AUTO 13005KT 10SM CLR 07/01 A3008 RMK AO1
KGIC 180755Z AUTO 11009KT 10SM CLR 08/01 A3008 RMK AO1
KGIC 180735Z AUTO 31003KT 10SM CLR 08/00 A3009 RMK AO1
KGIC 180715Z AUTO 10005KT 10SM CLR 08/M01 A3010 RMK AO1
KGIC 180655Z AUTO 14005KT 10SM SCT043 SCT049 07/00 A3011 RMK AO1
KGIC 180635Z AUTO 10007KT 060V130 10SM BKN046 OVC060 08/00 A3011 RMK AO1
KGIC 180615Z AUTO 12005KT 10SM SCT045 BKN050 08/01 A3011 RMK AO1
KGIC 180555Z AUTO 09007KT 070V130 10SM SCT048 SCT060 08/01 A3012 RMK AO1
KGIC 180535Z AUTO 05004KT 7SM SCT050 BKN060 10/00 A3011 RMK AO1
KGIC 180515Z AUTO 01004KT 10SM OVC050 10/01 A3010 RMK AO1
KGIC 180455Z AUTO 03009KT 10SM BKN050 OVC065 10/03 A3010 RMK AO1
KGIC 180435Z AUTO 27006G18KT 10SM SCT050 BKN080 13/03 A3010 RMK AO1
KGIC 180415Z AUTO 25015G20KT 10SM SCT060 BKN080 13/03 A3009 RMK AO1
KGIC 180355Z AUTO 25018G24KT 10SM SCT060 BKN080 14/02 A3008 RMK AO1
KGIC 180335Z AUTO 26009KT 10SM SCT080 OVC090 14/01 A3007 RMK AO1
KGIC 180315Z AUTO 27007KT 10SM OVC080 15/00 A3007 RMK AO1
KGIC 180255Z AUTO 25010G15KT 10SM OVC090 15/00 A3006 RMK AO1
KGIC 180235Z AUTO 26007KT 10SM OVC090 15/00 A3004 RMK AO1
KGIC 180215Z AUTO 26010KT 10SM OVC090 15/00 A3003 RMK AO1
KGIC 180155Z AUTO 26016G21KT 10SM OVC090 16/M01 A3002 RMK AO1
KGIC 180135Z AUTO 26013G18KT 10SM OVC090 16/00 A3000 RMK AO1
KGIC 180115Z AUTO 25009G16KT 10SM OVC090 15/M01 A2999 RMK AO1
KGIC 180055Z AUTO 25010KT 10SM BKN090 16/M02 A2998 RMK AO1